createdAt,value
2018-05-17T00:00:29.924Z,10.10
2018-05-17T00:01:29.923Z,9.90
2018-05-17T00:02:29.918Z,10.30
2018-05-17T00:03:29.915Z,10.10
2018-05-17T00:04:29.915Z,10.20
2018-05-17T00:05:29.916Z,9.90
2018-05-17T00:06:29.920Z,9.90
2018-05-17T00:07:29.913Z,9.90
2018-05-17T00:08:29.913Z,9.60
2018-05-17T00:09:29.924Z,10.30
2018-05-17T00:10:29.910Z,9.90
2018-05-17T00:11:29.917Z,10.30
2018-05-17T00:12:29.908Z,9.90
2018-05-17T00:13:29.907Z,10.10
2018-05-17T00:14:29.904Z,10.20
2018-05-17T00:15:29.905Z,10.40
2018-05-17T00:16:29.905Z,10.20
2018-05-17T00:17:29.904Z,10.60
2018-05-17T00:18:29.902Z,10.20
2018-05-17T00:19:29.900Z,10.30
2018-05-17T00:20:29.902Z,10.10
2018-05-17T00:21:29.899Z,10.10
2018-05-17T00:22:29.902Z,10.10
2018-05-17T00:23:29.894Z,10.50
2018-05-17T00:24:29.897Z,10.60
2018-05-17T00:25:29.901Z,10.70
2018-05-17T00:26:29.894Z,10.20
2018-05-17T00:27:29.887Z,10.60
2018-05-17T00:28:29.890Z,10.90
2018-05-17T00:29:29.895Z,10.60
2018-05-17T00:30:29.892Z,10.90
2018-05-17T00:31:29.889Z,10.40
2018-05-17T00:32:29.887Z,10.90
2018-05-17T00:33:29.885Z,11.30
2018-05-17T00:34:29.888Z,10.80
2018-05-17T00:35:29.888Z,10.70
2018-05-17T00:36:29.889Z,10.80
2018-05-17T00:37:29.885Z,10.80
2018-05-17T00:38:29.880Z,11.00
2018-05-17T00:39:29.880Z,10.40
2018-05-17T00:40:29.874Z,11.00
2018-05-17T00:41:29.877Z,11.20
2018-05-17T00:42:29.878Z,11.00
2018-05-17T00:43:29.873Z,10.70
2018-05-17T00:44:29.876Z,10.70
2018-05-17T00:45:29.873Z,11.00
2018-05-17T00:46:29.872Z,10.90
2018-05-17T00:47:29.872Z,11.20
2018-05-17T00:48:29.874Z,10.60
2018-05-17T00:49:29.866Z,10.70
2018-05-17T00:50:29.873Z,10.10
2018-05-17T00:51:29.863Z,10.60
2018-05-17T00:52:29.942Z,11.40
2018-05-17T00:53:29.864Z,11.10
2018-05-17T00:54:29.860Z,11.40
2018-05-17T00:55:29.864Z,11.50
2018-05-17T00:56:29.860Z,11.20
2018-05-17T00:57:29.863Z,11.10
2018-05-17T00:58:29.858Z,10.90
2018-05-17T00:59:29.853Z,10.80
2018-05-17T01:00:29.855Z,11.00
2018-05-17T01:01:29.858Z,11.30
2018-05-17T01:02:29.850Z,11.00
2018-05-17T01:03:29.849Z,11.20
2018-05-17T01:04:29.849Z,11.60
2018-05-17T01:05:29.848Z,10.60
2018-05-17T01:06:29.845Z,11.30
2018-05-17T01:07:29.844Z,11.40
2018-05-17T01:08:29.844Z,11.70
2018-05-17T01:09:29.843Z,11.70
2018-05-17T01:10:29.842Z,12.10
2018-05-17T01:11:29.847Z,11.80
2018-05-17T01:12:29.841Z,11.90
2018-05-17T01:13:29.836Z,11.40
2018-05-17T01:14:29.843Z,12.10
2018-05-17T01:15:29.833Z,12.90
2018-05-17T01:16:29.835Z,12.30
2018-05-17T01:17:29.833Z,12.90
2018-05-17T01:18:29.832Z,12.50
2018-05-17T01:19:29.831Z,12.40
2018-05-17T01:20:29.829Z,12.10
2018-05-17T01:21:29.829Z,11.70
2018-05-17T01:22:29.832Z,11.70
2018-05-17T01:23:29.827Z,12.00
2018-05-17T01:24:29.826Z,12.00
2018-05-17T01:25:29.824Z,12.00
2018-05-17T01:26:29.824Z,12.20
2018-05-17T01:27:29.827Z,12.10
2018-05-17T01:28:29.818Z,12.30
2018-05-17T01:29:29.818Z,12.20
2018-05-17T01:30:29.817Z,12.80
2018-05-17T01:31:29.814Z,12.70
2018-05-17T01:32:29.812Z,12.80
2018-05-17T01:33:29.813Z,12.80
2018-05-17T01:34:29.813Z,13.20
2018-05-17T01:35:29.811Z,13.30
2018-05-17T01:36:29.805Z,13.20
2018-05-17T01:37:29.807Z,13.50
2018-05-17T01:38:29.821Z,13.40
2018-05-17T01:39:29.805Z,13.00
2018-05-17T01:40:29.805Z,13.20
2018-05-17T01:41:29.803Z,13.20
2018-05-17T01:42:29.802Z,13.90
2018-05-17T01:43:29.800Z,13.60
2018-05-17T01:44:29.797Z,14.20
2018-05-17T01:45:29.799Z,13.70
2018-05-17T01:46:29.796Z,13.70
2018-05-17T01:47:29.795Z,13.80
2018-05-17T01:48:29.795Z,14.20
2018-05-17T01:49:29.792Z,14.30
2018-05-17T01:50:29.791Z,13.70
2018-05-17T01:51:29.791Z,14.20
2018-05-17T01:52:29.790Z,14.50
2018-05-17T01:53:29.787Z,14.20
2018-05-17T01:54:29.789Z,14.90
2018-05-17T01:55:29.786Z,14.50
2018-05-17T01:56:29.782Z,15.10
2018-05-17T01:57:29.781Z,15.60
2018-05-17T01:58:29.786Z,15.10
2018-05-17T01:59:29.778Z,14.90
2018-05-17T02:00:29.777Z,15.30
2018-05-17T02:01:29.780Z,15.60
2018-05-17T02:02:29.774Z,15.80
2018-05-17T02:03:29.773Z,15.60
2018-05-17T02:04:29.772Z,16.30
2018-05-17T02:05:29.774Z,16.20
2018-05-17T02:06:29.766Z,16.10
2018-05-17T02:07:29.767Z,16.10
2018-05-17T02:08:29.766Z,16.10
2018-05-17T02:09:29.764Z,16.60
2018-05-17T02:10:29.759Z,16.70
2018-05-17T02:11:29.760Z,16.60
2018-05-17T02:12:29.765Z,16.20
2018-05-17T02:13:29.757Z,17.10
2018-05-17T02:14:29.763Z,16.80
2018-05-17T02:15:29.753Z,16.20
2018-05-17T02:16:29.754Z,17.30
2018-05-17T02:17:29.753Z,16.90
2018-05-17T02:18:29.752Z,17.20
2018-05-17T02:19:29.751Z,17.40
2018-05-17T02:20:29.746Z,18.10
2018-05-17T02:21:29.747Z,17.30
2018-05-17T02:22:29.740Z,17.60
2018-05-17T02:23:29.739Z,17.30
2018-05-17T02:24:29.738Z,17.40
2018-05-17T02:25:29.739Z,17.70
2018-05-17T02:26:29.737Z,18.10
2018-05-17T02:27:29.734Z,18.00
2018-05-17T02:28:29.730Z,18.30
2018-05-17T02:29:29.732Z,18.30
2018-05-17T02:30:29.727Z,18.60
2018-05-17T02:31:29.734Z,17.20
2018-05-17T02:32:29.724Z,18.30
2018-05-17T02:33:29.725Z,18.30
2018-05-17T02:34:29.724Z,17.80
2018-05-17T02:35:29.718Z,18.20
2018-05-17T02:36:29.717Z,19.10
2018-05-17T02:37:29.718Z,18.40
2018-05-17T02:38:29.713Z,18.40
2018-05-17T02:39:29.709Z,18.70
2018-05-17T02:40:29.720Z,18.30
2018-05-17T02:41:29.724Z,17.20
2018-05-17T02:42:29.708Z,18.30
2018-05-17T02:43:29.705Z,19.30
2018-05-17T02:44:29.700Z,18.60
2018-05-17T02:45:29.694Z,18.80
2018-05-17T02:46:29.695Z,19.40
2018-05-17T02:47:29.693Z,18.10
2018-05-17T02:48:29.694Z,18.80
2018-05-17T02:49:29.693Z,19.50
2018-05-17T02:50:29.689Z,19.10
2018-05-17T02:51:29.686Z,19.60
2018-05-17T02:52:29.684Z,19.50
2018-05-17T02:53:29.689Z,19.10
2018-05-17T02:54:29.679Z,19.00
2018-05-17T02:55:29.677Z,18.40
2018-05-17T02:56:29.679Z,19.40
2018-05-17T02:57:29.681Z,19.70
2018-05-17T02:58:29.672Z,19.60
2018-05-17T02:59:29.668Z,19.70
2018-05-17T03:00:29.668Z,19.50
2018-05-17T03:01:29.665Z,19.30
2018-05-17T03:02:29.668Z,19.30
2018-05-17T03:03:29.660Z,19.20
2018-05-17T03:04:29.660Z,20.20
2018-05-17T03:05:29.664Z,19.90
2018-05-17T03:06:29.657Z,19.90
2018-05-17T03:07:29.653Z,20.70
2018-05-17T03:08:29.654Z,21.00
2018-05-17T03:09:29.652Z,20.80
2018-05-17T03:10:29.647Z,20.40
2018-05-17T03:11:29.645Z,21.50
2018-05-17T03:12:29.642Z,21.60
2018-05-17T03:13:29.640Z,22.30
2018-05-17T03:14:29.644Z,22.70
2018-05-17T03:15:29.636Z,22.70
2018-05-17T03:16:29.640Z,23.10
2018-05-17T03:17:29.631Z,22.80
2018-05-17T03:18:29.630Z,22.30
2018-05-17T03:19:29.626Z,22.10
2018-05-17T03:20:29.625Z,22.80
2018-05-17T03:21:29.623Z,23.00
2018-05-17T03:22:29.623Z,21.90
2018-05-17T03:23:29.617Z,22.60
2018-05-17T03:24:29.616Z,23.10
2018-05-17T03:25:29.613Z,21.80
2018-05-17T03:26:29.611Z,22.80
2018-05-17T03:27:29.608Z,22.20
2018-05-17T03:28:29.607Z,22.80
2018-05-17T03:29:29.606Z,22.60
2018-05-17T03:30:29.605Z,23.00
2018-05-17T03:31:29.598Z,23.50
2018-05-17T03:32:29.599Z,23.30
2018-05-17T03:33:29.595Z,22.90
2018-05-17T03:34:29.593Z,22.30
2018-05-17T03:35:29.593Z,22.40
2018-05-17T03:36:29.588Z,21.80
2018-05-17T03:37:29.586Z,21.60
2018-05-17T03:38:29.586Z,22.00
2018-05-17T03:39:29.590Z,22.20
2018-05-17T03:40:29.578Z,22.70
2018-05-17T03:41:29.579Z,22.80
2018-05-17T03:42:29.573Z,22.90
2018-05-17T03:43:29.572Z,22.30
2018-05-17T03:44:29.569Z,21.70
2018-05-17T03:45:29.568Z,22.20
2018-05-17T03:46:29.573Z,21.90
2018-05-17T03:47:29.567Z,22.00
2018-05-17T03:48:29.561Z,22.70
2018-05-17T03:49:29.558Z,22.20
2018-05-17T03:50:29.557Z,22.10
2018-05-17T03:51:29.554Z,22.10
2018-05-17T03:52:29.552Z,22.50
2018-05-17T03:53:29.549Z,21.60
2018-05-17T03:54:29.549Z,22.20
2018-05-17T03:55:29.540Z,21.10
2018-05-17T03:56:29.541Z,22.50
2018-05-17T03:57:29.540Z,22.00
2018-05-17T03:58:29.537Z,22.20
2018-05-17T03:59:29.535Z,21.00
2018-05-17T04:00:29.532Z,21.10
2018-05-17T04:01:29.539Z,19.60
2018-05-17T04:02:29.529Z,20.00
2018-05-17T04:03:29.527Z,19.30
2018-05-17T04:04:29.523Z,18.70
2018-05-17T04:05:29.521Z,19.20
2018-05-17T04:06:29.514Z,18.80
2018-05-17T04:07:29.515Z,19.00
2018-05-17T04:08:29.524Z,18.30
2018-05-17T04:09:29.510Z,17.80
2018-05-17T04:10:29.510Z,18.20
2018-05-17T04:11:29.504Z,18.10
2018-05-17T04:12:29.503Z,17.20
2018-05-17T04:13:29.510Z,17.10
2018-05-17T04:14:29.508Z,16.70
2018-05-17T04:15:29.498Z,16.60
2018-05-17T04:16:29.496Z,16.30
2018-05-17T04:17:29.496Z,16.00
2018-05-17T04:18:29.490Z,16.00
2018-05-17T04:19:29.490Z,15.80
2018-05-17T04:20:29.488Z,15.30
2018-05-17T04:21:29.487Z,15.10
2018-05-17T04:22:29.481Z,14.40
2018-05-17T04:23:29.481Z,14.10
2018-05-17T04:24:29.482Z,13.90
2018-05-17T04:25:29.479Z,14.00
2018-05-17T04:26:29.477Z,14.00
2018-05-17T04:27:29.481Z,13.90
2018-05-17T04:28:29.474Z,13.00
2018-05-17T04:29:29.469Z,13.00
2018-05-17T04:30:29.470Z,12.60
2018-05-17T04:31:29.467Z,12.60
2018-05-17T04:32:29.462Z,13.00
2018-05-17T04:33:29.475Z,12.70
2018-05-17T04:34:29.466Z,12.70
2018-05-17T04:35:29.461Z,12.20
2018-05-17T04:36:29.459Z,12.10
2018-05-17T04:37:29.461Z,11.80
2018-05-17T04:38:29.457Z,11.70
2018-05-17T04:39:29.458Z,12.20
2018-05-17T04:40:29.514Z,11.50
2018-05-17T04:41:29.452Z,11.80
2018-05-17T04:42:29.448Z,11.60
2018-05-17T04:43:29.450Z,11.30
2018-05-17T04:44:29.449Z,11.20
2018-05-17T04:45:29.448Z,11.20
2018-05-17T04:46:29.451Z,11.00
2018-05-17T04:47:29.446Z,11.20
2018-05-17T04:48:29.445Z,10.90
2018-05-17T04:49:29.443Z,10.90
2018-05-17T04:50:29.451Z,10.80
2018-05-17T04:51:29.442Z,10.50
2018-05-17T04:52:29.441Z,10.20
2018-05-17T04:53:29.444Z,11.10
2018-05-17T04:54:29.442Z,10.60
2018-05-17T04:55:29.444Z,10.50
2018-05-17T04:56:29.438Z,11.40
2018-05-17T04:57:29.438Z,10.50
2018-05-17T04:58:29.441Z,11.00
2018-05-17T04:59:29.437Z,10.50
2018-05-17T05:00:29.438Z,10.70
2018-05-17T05:01:29.434Z,10.40
2018-05-17T05:02:29.439Z,10.40
2018-05-17T05:03:29.438Z,10.40
2018-05-17T05:04:29.442Z,10.30
2018-05-17T05:05:29.433Z,10.50
2018-05-17T05:06:29.434Z,10.10
2018-05-17T05:07:29.436Z,10.40
2018-05-17T05:08:29.433Z,10.40
2018-05-17T05:09:29.469Z,10.40
2018-05-17T05:10:29.431Z,10.30
2018-05-17T05:11:29.436Z,10.50
2018-05-17T05:12:29.433Z,10.40
2018-05-17T05:13:29.434Z,10.00
2018-05-17T05:14:29.432Z,9.50
2018-05-17T05:15:29.429Z,9.90
2018-05-17T05:16:29.430Z,10.30
2018-05-17T05:17:29.435Z,10.10
2018-05-17T05:18:29.439Z,10.80
2018-05-17T05:19:29.443Z,10.00
2018-05-17T05:20:29.436Z,9.50
2018-05-17T05:21:29.431Z,9.80
2018-05-17T05:22:29.436Z,9.90
2018-05-17T05:23:29.436Z,9.60
2018-05-17T05:24:29.437Z,9.50
2018-05-17T05:25:29.438Z,9.30
2018-05-17T05:26:29.436Z,9.60
2018-05-17T05:27:29.442Z,9.50
2018-05-17T05:28:29.440Z,9.30
2018-05-17T05:29:29.439Z,9.50
2018-05-17T05:30:29.441Z,9.90
2018-05-17T05:31:29.508Z,9.70
2018-05-17T05:32:29.443Z,9.50
2018-05-17T05:33:29.444Z,9.80
2018-05-17T05:34:29.443Z,8.90
2018-05-17T05:35:29.444Z,9.80
2018-05-17T05:36:29.450Z,9.40
2018-05-17T05:37:29.497Z,9.70
2018-05-17T05:38:29.456Z,9.80
2018-05-17T05:39:29.448Z,9.60
2018-05-17T05:40:29.447Z,9.20
2018-05-17T05:41:29.453Z,9.60
2018-05-17T05:42:29.451Z,9.50
2018-05-17T05:43:29.454Z,9.70
2018-05-17T05:44:29.453Z,9.70
2018-05-17T05:45:29.456Z,9.90
2018-05-17T05:46:29.461Z,10.30
2018-05-17T05:47:29.454Z,9.40
2018-05-17T05:48:29.456Z,10.10
2018-05-17T05:49:29.539Z,9.90
2018-05-17T05:50:29.455Z,9.90
2018-05-17T05:51:29.457Z,9.90
2018-05-17T05:52:29.462Z,9.90
2018-05-17T05:53:29.463Z,10.30
2018-05-17T05:54:29.458Z,10.10
2018-05-17T05:55:29.464Z,9.10
2018-05-17T05:56:29.459Z,9.50
2018-05-17T05:57:29.460Z,9.10
2018-05-17T05:58:29.460Z,9.70
2018-05-17T05:59:29.462Z,9.20
2018-05-17T06:00:29.462Z,8.90
2018-05-17T06:01:29.463Z,8.50
2018-05-17T06:02:29.612Z,8.80
2018-05-17T06:03:29.462Z,8.40
2018-05-17T06:04:29.469Z,8.00
2018-05-17T06:05:29.467Z,8.30
2018-05-17T06:06:29.467Z,8.20
2018-05-17T06:07:29.469Z,8.10
2018-05-17T06:08:29.472Z,8.50
2018-05-17T06:09:29.472Z,8.90
2018-05-17T06:10:29.476Z,8.40
2018-05-17T06:11:29.472Z,8.10
2018-05-17T06:12:29.480Z,7.80
2018-05-17T06:13:29.479Z,8.80
2018-05-17T06:14:29.478Z,9.00
2018-05-17T06:15:29.482Z,9.00
2018-05-17T06:16:29.480Z,8.90
2018-05-17T06:17:29.532Z,8.50
2018-05-17T06:18:29.490Z,8.30
2018-05-17T06:19:29.485Z,8.10
2018-05-17T06:20:29.489Z,8.10
2018-05-17T06:21:29.490Z,8.00
2018-05-17T06:22:29.493Z,8.40
2018-05-17T06:23:29.495Z,8.50
2018-05-17T06:24:29.500Z,7.80
2018-05-17T06:25:29.501Z,8.30
2018-05-17T06:26:29.501Z,7.90
2018-05-17T06:27:29.501Z,8.30
2018-05-17T06:28:29.504Z,8.00
2018-05-17T06:29:29.509Z,8.10
2018-05-17T06:30:29.641Z,7.90
2018-05-17T06:31:29.512Z,7.70
2018-05-17T06:32:29.520Z,7.90
2018-05-17T06:33:29.517Z,8.30
2018-05-17T06:34:29.521Z,8.00
2018-05-17T06:35:29.521Z,8.50
2018-05-17T06:36:29.523Z,7.90
2018-05-17T06:37:29.526Z,7.80
2018-05-17T06:38:29.529Z,7.90
2018-05-17T06:39:29.533Z,7.80
2018-05-17T06:40:29.537Z,8.00
2018-05-17T06:41:29.538Z,8.20
2018-05-17T06:42:29.536Z,7.50
2018-05-17T06:43:29.543Z,8.00
2018-05-17T06:44:29.551Z,8.00
2018-05-17T06:45:29.548Z,8.40
2018-05-17T06:46:29.580Z,7.60
2018-05-17T06:47:29.555Z,7.90
2018-05-17T06:48:29.556Z,8.40
2018-05-17T06:49:29.562Z,8.50
2018-05-17T06:50:29.556Z,8.40
2018-05-17T06:51:29.572Z,8.30
2018-05-17T06:52:29.566Z,8.00
2018-05-17T06:53:29.569Z,8.70
2018-05-17T06:54:29.576Z,9.00
2018-05-17T06:55:29.583Z,8.20
2018-05-17T06:56:29.578Z,8.60
2018-05-17T06:57:29.593Z,8.70
2018-05-17T06:58:29.583Z,8.50
2018-05-17T06:59:29.585Z,8.30
2018-05-17T07:00:29.616Z,8.00
2018-05-17T07:01:29.590Z,7.30
2018-05-17T07:02:29.592Z,7.80
2018-05-17T07:03:29.593Z,7.90
2018-05-17T07:04:29.598Z,7.90
2018-05-17T07:05:29.601Z,7.90
2018-05-17T07:06:29.609Z,7.90
2018-05-17T07:07:29.604Z,7.40
2018-05-17T07:08:29.607Z,7.40
2018-05-17T07:09:29.618Z,7.10
2018-05-17T07:10:29.667Z,7.40
2018-05-17T07:11:29.616Z,7.10
2018-05-17T07:12:29.622Z,7.00
2018-05-17T07:13:29.630Z,6.80
2018-05-17T07:14:29.626Z,6.90
2018-05-17T07:15:29.631Z,6.80
2018-05-17T07:16:29.635Z,7.20
2018-05-17T07:17:29.640Z,6.10
2018-05-17T07:18:29.848Z,6.90
2018-05-17T07:19:30.052Z,7.00
2018-05-17T07:20:29.650Z,6.30
2018-05-17T07:21:29.657Z,6.50
2018-05-17T07:22:29.668Z,6.30
2018-05-17T07:23:29.663Z,6.40
2018-05-17T07:24:29.667Z,6.50
2018-05-17T07:25:29.672Z,6.50
2018-05-17T07:26:29.680Z,6.40
2018-05-17T07:27:29.681Z,5.90
2018-05-17T07:28:29.691Z,6.00
2018-05-17T07:29:29.687Z,6.10
2018-05-17T07:30:29.694Z,6.40
2018-05-17T07:31:29.811Z,5.80
2018-05-17T07:32:29.704Z,5.90
2018-05-17T07:33:29.705Z,5.60
2018-05-17T07:34:29.711Z,6.20
2018-05-17T07:35:29.717Z,6.20
2018-05-17T07:36:29.721Z,5.80
2018-05-17T07:37:29.726Z,6.00
2018-05-17T07:38:29.728Z,5.80
2018-05-17T07:39:29.735Z,6.20
2018-05-17T07:40:29.742Z,5.80
2018-05-17T07:41:29.743Z,5.70
2018-05-17T07:42:29.749Z,5.60
2018-05-17T07:43:29.756Z,5.50
2018-05-17T07:44:29.761Z,5.30
2018-05-17T07:45:29.764Z,5.10
2018-05-17T07:46:29.766Z,5.40
2018-05-17T07:47:29.769Z,5.10
2018-05-17T07:48:29.775Z,5.00
2018-05-17T07:49:29.783Z,5.50
2018-05-17T07:50:29.789Z,5.00
2018-05-17T07:51:29.795Z,5.90
2018-05-17T07:52:29.800Z,5.60
2018-05-17T07:53:29.806Z,5.20
2018-05-17T07:54:29.812Z,5.10
2018-05-17T07:55:29.903Z,4.90
2018-05-17T07:56:29.825Z,4.90
2018-05-17T07:57:29.839Z,5.40
2018-05-17T07:58:29.839Z,5.20
2018-05-17T07:59:29.841Z,5.40
2018-05-17T08:00:29.858Z,5.30
2018-05-17T08:01:29.851Z,5.20
2018-05-17T08:02:29.857Z,4.90
2018-05-17T08:03:29.864Z,4.50
2018-05-17T08:04:29.869Z,5.30
2018-05-17T08:05:29.877Z,4.50
2018-05-17T08:06:29.886Z,4.40
2018-05-17T08:07:29.889Z,5.00
2018-05-17T08:08:29.894Z,5.10
2018-05-17T08:09:29.997Z,5.00
2018-05-17T08:10:29.906Z,4.30
2018-05-17T08:11:29.914Z,4.90
2018-05-17T08:12:29.925Z,4.40
2018-05-17T08:13:29.924Z,4.60
2018-05-17T08:14:29.936Z,4.60
2018-05-17T08:15:29.945Z,4.60
2018-05-17T08:16:29.952Z,4.70
2018-05-17T08:17:29.962Z,4.70
2018-05-17T08:18:30.077Z,4.60
2018-05-17T08:19:29.964Z,4.80
2018-05-17T08:20:29.978Z,4.70
2018-05-17T08:21:29.987Z,5.20
2018-05-17T08:22:29.990Z,5.10
2018-05-17T08:23:29.995Z,5.10
2018-05-17T08:24:30.004Z,4.80
2018-05-17T08:25:30.012Z,4.70
2018-05-17T08:26:30.017Z,4.90
2018-05-17T08:27:30.024Z,5.00
2018-05-17T08:28:30.029Z,4.90
2018-05-17T08:29:30.036Z,4.90
2018-05-17T08:30:30.042Z,5.00
2018-05-17T08:31:30.051Z,5.10
2018-05-17T08:32:30.059Z,5.00
2018-05-17T08:33:30.063Z,5.00
2018-05-17T08:34:30.068Z,5.10
2018-05-17T08:35:30.075Z,5.10
2018-05-17T08:36:30.221Z,5.20
2018-05-17T08:37:30.088Z,5.10
2018-05-17T08:38:30.094Z,5.00
2018-05-17T08:39:30.101Z,5.10
2018-05-17T08:40:30.105Z,4.90
2018-05-17T08:41:30.113Z,4.40
2018-05-17T08:42:30.124Z,4.80
2018-05-17T08:43:30.123Z,4.90
2018-05-17T08:44:30.128Z,5.20
2018-05-17T08:45:30.139Z,5.00
2018-05-17T08:46:30.141Z,5.00
2018-05-17T08:47:30.149Z,5.10
2018-05-17T08:48:30.155Z,5.30
2018-05-17T08:49:30.161Z,5.40
2018-05-17T08:50:30.168Z,5.10
2018-05-17T08:51:30.185Z,5.50
2018-05-17T08:52:30.185Z,5.10
2018-05-17T08:53:30.191Z,5.00
2018-05-17T08:54:30.252Z,5.10
2018-05-17T08:55:30.206Z,4.40
2018-05-17T08:56:30.206Z,5.30
2018-05-17T08:57:30.222Z,5.10
2018-05-17T08:58:30.223Z,5.30
2018-05-17T08:59:30.231Z,5.60
2018-05-17T09:00:30.235Z,5.70
2018-05-17T09:01:30.242Z,5.20
2018-05-17T09:02:30.252Z,5.20
2018-05-17T09:03:30.252Z,4.70
2018-05-17T09:04:30.256Z,5.40
2018-05-17T09:05:30.263Z,5.20
2018-05-17T09:06:30.265Z,5.40
2018-05-17T09:07:30.273Z,5.00
2018-05-17T09:08:30.277Z,5.00
2018-05-17T09:09:30.285Z,4.90
2018-05-17T09:10:30.286Z,4.70
2018-05-17T09:11:30.290Z,4.70
2018-05-17T09:12:30.295Z,4.80
2018-05-17T09:13:30.343Z,4.30
2018-05-17T09:14:30.306Z,4.80
2018-05-17T09:15:30.307Z,4.80
2018-05-17T09:16:30.312Z,4.80
2018-05-17T09:17:30.319Z,4.70
2018-05-17T09:18:30.323Z,5.10
2018-05-17T09:19:30.320Z,4.90
2018-05-17T09:20:30.392Z,4.70
2018-05-17T09:21:30.334Z,4.80
2018-05-17T09:22:30.331Z,4.90
2018-05-17T09:23:30.377Z,5.60
2018-05-17T09:24:30.337Z,5.50
2018-05-17T09:25:30.341Z,5.10
2018-05-17T09:26:30.347Z,5.20
2018-05-17T09:27:30.346Z,5.40
2018-05-17T09:28:30.352Z,5.70
2018-05-17T09:29:30.354Z,5.50
2018-05-17T09:30:30.356Z,5.40
2018-05-17T09:31:30.360Z,5.60
2018-05-17T09:32:30.369Z,5.20
2018-05-17T09:33:30.367Z,5.90
2018-05-17T09:34:30.373Z,5.30
2018-05-17T09:35:30.374Z,5.80
2018-05-17T09:36:30.382Z,5.40
2018-05-17T09:37:30.380Z,6.10
2018-05-17T09:38:30.388Z,5.60
2018-05-17T09:39:30.384Z,5.90
2018-05-17T09:40:30.389Z,5.40
2018-05-17T09:41:30.428Z,5.60
2018-05-17T09:42:30.396Z,5.30
2018-05-17T09:43:30.395Z,5.30
2018-05-17T09:44:30.399Z,6.10
2018-05-17T09:45:30.405Z,6.10
2018-05-17T09:46:30.413Z,5.80
2018-05-17T09:47:30.431Z,5.60
2018-05-17T09:48:30.410Z,6.30
2018-05-17T09:49:30.411Z,5.50
2018-05-17T09:50:30.419Z,5.90
2018-05-17T09:51:30.417Z,5.60
2018-05-17T09:52:30.418Z,5.30
2018-05-17T09:53:30.429Z,5.20
2018-05-17T09:54:30.431Z,5.70
2018-05-17T09:55:30.425Z,5.30
2018-05-17T09:56:30.428Z,5.10
2018-05-17T09:57:30.435Z,5.10
2018-05-17T09:58:30.434Z,5.60
2018-05-17T09:59:30.450Z,5.50
2018-05-17T10:00:30.440Z,5.80
2018-05-17T10:01:30.521Z,5.20
2018-05-17T10:02:30.445Z,5.90
2018-05-17T10:03:30.448Z,5.40
2018-05-17T10:04:30.451Z,5.70
2018-05-17T10:05:30.453Z,6.20
2018-05-17T10:06:30.459Z,6.00
2018-05-17T10:07:30.457Z,5.30
2018-05-17T10:08:30.459Z,5.60
2018-05-17T10:09:30.468Z,5.90
2018-05-17T10:10:30.470Z,5.80
2018-05-17T10:11:30.465Z,5.30
2018-05-17T10:12:30.471Z,5.50
2018-05-17T10:13:30.470Z,5.80
2018-05-17T10:14:30.506Z,5.70
2018-05-17T10:15:30.485Z,6.00
2018-05-17T10:16:30.481Z,5.40
2018-05-17T10:17:30.477Z,5.40
2018-05-17T10:18:30.482Z,6.10
2018-05-17T10:19:30.483Z,6.50
2018-05-17T10:20:30.485Z,5.80
2018-05-17T10:21:30.504Z,5.70
2018-05-17T10:22:30.497Z,5.60
2018-05-17T10:23:30.495Z,5.70
2018-05-17T10:24:30.495Z,5.90
2018-05-17T10:25:30.502Z,6.00
2018-05-17T10:26:30.502Z,5.70
2018-05-17T10:27:30.502Z,5.80
2018-05-17T10:28:30.509Z,5.80
2018-05-17T10:29:30.526Z,6.50
2018-05-17T10:30:30.512Z,5.80
2018-05-17T10:31:30.516Z,6.40
2018-05-17T10:32:30.516Z,6.20
2018-05-17T10:33:30.528Z,6.10
2018-05-17T10:34:30.521Z,6.10
2018-05-17T10:35:30.522Z,6.40
2018-05-17T10:36:30.528Z,6.30
2018-05-17T10:37:30.526Z,5.80
2018-05-17T10:38:30.529Z,6.20
2018-05-17T10:39:30.531Z,6.20
2018-05-17T10:40:30.534Z,5.70
2018-05-17T10:41:30.537Z,5.90
2018-05-17T10:42:30.535Z,5.50
2018-05-17T10:43:30.539Z,5.90
2018-05-17T10:44:30.543Z,5.90
2018-05-17T10:45:30.545Z,6.10
2018-05-17T10:46:30.553Z,5.70
2018-05-17T10:47:30.550Z,6.00
2018-05-17T10:48:30.574Z,5.60
2018-05-17T10:49:30.557Z,6.20
2018-05-17T10:50:30.869Z,5.90
2018-05-17T10:51:30.559Z,5.50
2018-05-17T10:52:30.756Z,5.60
2018-05-17T10:53:30.565Z,5.80
2018-05-17T10:54:30.612Z,5.80
2018-05-17T10:55:30.568Z,5.50
2018-05-17T10:56:30.569Z,5.90
2018-05-17T10:57:31.555Z,5.90
2018-05-17T10:58:30.576Z,5.60
2018-05-17T10:59:30.602Z,5.80
2018-05-17T11:00:30.584Z,5.70
2018-05-17T11:01:30.585Z,6.10
2018-05-17T11:02:30.622Z,5.70
2018-05-17T11:03:30.588Z,5.40
2018-05-17T11:04:30.589Z,5.60
2018-05-17T11:05:30.589Z,5.40
2018-05-17T11:06:30.593Z,5.80
2018-05-17T11:07:30.595Z,5.60
2018-05-17T11:08:30.597Z,5.30
2018-05-17T11:09:30.601Z,5.50
2018-05-17T11:10:30.602Z,5.60
2018-05-17T11:11:30.603Z,6.10
2018-05-17T11:12:30.604Z,6.20
2018-05-17T11:13:30.608Z,6.10
2018-05-17T11:14:30.612Z,5.90
2018-05-17T11:15:30.613Z,6.40
2018-05-17T11:16:30.619Z,6.30
2018-05-17T11:17:30.622Z,6.30
2018-05-17T11:18:30.625Z,6.10
2018-05-17T11:19:31.135Z,6.20
2018-05-17T11:20:30.634Z,5.70
2018-05-17T11:21:30.846Z,5.50
2018-05-17T11:22:30.632Z,5.40
2018-05-17T11:23:30.634Z,5.40
2018-05-17T11:24:30.636Z,6.10
2018-05-17T11:25:30.640Z,6.00
2018-05-17T11:26:30.698Z,5.80
2018-05-17T11:27:30.640Z,5.50
2018-05-17T11:28:30.640Z,5.60
2018-05-17T11:29:30.643Z,5.30
2018-05-17T11:30:30.648Z,5.50
2018-05-17T11:31:30.651Z,5.90
2018-05-17T11:32:30.654Z,5.80
2018-05-17T11:33:30.655Z,5.80
2018-05-17T11:34:30.662Z,5.80
2018-05-17T11:35:30.660Z,5.90
2018-05-17T11:36:30.660Z,5.90
2018-05-17T11:37:30.666Z,6.40
2018-05-17T11:38:30.762Z,6.40
2018-05-17T11:39:30.671Z,5.80
2018-05-17T11:40:30.673Z,5.90
2018-05-17T11:41:30.675Z,6.40
2018-05-17T11:42:30.680Z,6.00
2018-05-17T11:43:30.685Z,6.10
2018-05-17T11:44:30.849Z,6.10
2018-05-17T11:45:30.686Z,6.10
2018-05-17T11:46:30.732Z,5.80
2018-05-17T11:47:30.695Z,5.80
2018-05-17T11:48:30.781Z,5.80
2018-05-17T11:49:30.695Z,5.80
2018-05-17T11:50:30.716Z,6.00
2018-05-17T11:51:30.790Z,5.70
2018-05-17T11:52:30.782Z,6.00
2018-05-17T11:53:30.702Z,6.00
2018-05-17T11:54:30.707Z,6.30
2018-05-17T11:55:30.709Z,5.50
2018-05-17T11:56:30.724Z,5.90
2018-05-17T11:57:30.715Z,5.50
2018-05-17T11:58:30.717Z,5.50
2018-05-17T11:59:30.719Z,5.90
2018-05-17T12:00:30.727Z,5.90
2018-05-17T12:01:30.812Z,5.80
2018-05-17T12:02:30.727Z,6.20
2018-05-17T12:03:30.726Z,5.60
2018-05-17T12:04:30.729Z,5.60
2018-05-17T12:05:30.734Z,6.00
2018-05-17T12:06:30.739Z,5.50
2018-05-17T12:07:30.760Z,5.40
2018-05-17T12:08:30.741Z,5.80
2018-05-17T12:09:30.744Z,5.60
2018-05-17T12:10:30.749Z,5.40
2018-05-17T12:11:30.748Z,5.40
2018-05-17T12:12:30.752Z,5.30
2018-05-17T12:13:30.756Z,5.40
2018-05-17T12:14:30.762Z,5.20
2018-05-17T12:15:30.760Z,5.60
2018-05-17T12:16:30.762Z,5.40
2018-05-17T12:17:30.763Z,5.30
2018-05-17T12:18:30.767Z,5.40
2018-05-17T12:19:30.773Z,5.60
2018-05-17T12:20:30.777Z,5.30
2018-05-17T12:21:30.774Z,5.20
2018-05-17T12:22:30.779Z,5.30
2018-05-17T12:23:30.781Z,5.30
2018-05-17T12:24:30.794Z,5.10
2018-05-17T12:25:30.785Z,5.30
2018-05-17T12:26:30.790Z,5.20
2018-05-17T12:27:30.792Z,5.50
2018-05-17T12:28:30.995Z,5.00
2018-05-17T12:29:30.797Z,5.10
2018-05-17T12:30:30.795Z,5.00
2018-05-17T12:31:30.803Z,5.40
2018-05-17T12:32:30.808Z,5.50
2018-05-17T12:33:30.812Z,5.70
2018-05-17T12:34:30.830Z,5.60
2018-05-17T12:35:30.839Z,5.70
2018-05-17T12:36:30.824Z,5.40
2018-05-17T12:37:30.820Z,5.60
2018-05-17T12:38:30.821Z,5.90
2018-05-17T12:39:30.826Z,5.40
2018-05-17T12:40:30.829Z,5.20
2018-05-17T12:41:30.829Z,5.20
2018-05-17T12:42:30.834Z,4.80
2018-05-17T12:43:30.832Z,5.10
2018-05-17T12:44:30.844Z,5.10
2018-05-17T12:45:30.842Z,5.00
2018-05-17T12:46:30.849Z,5.10
2018-05-17T12:47:30.847Z,5.30
2018-05-17T12:48:30.856Z,5.00
2018-05-17T12:49:30.854Z,5.10
2018-05-17T12:50:30.862Z,5.30
2018-05-17T12:51:30.857Z,5.10
2018-05-17T12:52:30.860Z,5.30
2018-05-17T12:53:30.863Z,5.20
2018-05-17T12:54:30.866Z,4.90
2018-05-17T12:55:30.867Z,5.40
2018-05-17T12:56:30.871Z,5.40
2018-05-17T12:57:30.880Z,4.70
2018-05-17T12:58:30.895Z,5.20
2018-05-17T12:59:30.940Z,4.80
2018-05-17T13:00:30.886Z,5.00
2018-05-17T13:01:30.887Z,5.10
2018-05-17T13:02:30.889Z,5.30
2018-05-17T13:03:30.888Z,5.30
2018-05-17T13:04:30.906Z,4.90
2018-05-17T13:05:30.901Z,5.40
2018-05-17T13:06:30.904Z,5.40
2018-05-17T13:07:30.903Z,5.00